createdAt,value
2022-08-05T00:00:50.081Z,25.93
2022-08-05T00:03:17.155Z,25.92
2022-08-05T00:06:06.585Z,25.90
2022-08-05T00:08:35.497Z,25.87
2022-08-05T00:11:03.584Z,25.81
2022-08-05T00:13:39.608Z,25.76
2022-08-05T00:16:12.911Z,25.73
2022-08-05T00:18:40.752Z,25.68
2022-08-05T00:21:09.216Z,25.64
2022-08-05T00:23:46.102Z,25.57
2022-08-05T00:26:13.799Z,25.54
2022-08-05T00:28:43.038Z,25.49
2022-08-05T00:31:13.063Z,25.40
2022-08-05T00:34:54.614Z,25.35
2022-08-05T00:37:11.071Z,25.26
2022-08-05T00:39:19.056Z,25.13
2022-08-05T00:41:46.839Z,25.11
2022-08-05T00:44:30.904Z,25.06
2022-08-05T00:47:01.580Z,25.03
2022-08-05T00:49:51.280Z,24.98
2022-08-05T00:52:19.158Z,24.97
2022-08-05T00:54:55.994Z,24.94
2022-08-05T00:57:23.159Z,24.91
2022-08-05T00:59:54.425Z,24.87
2022-08-05T01:02:20.996Z,24.81
2022-08-05T01:04:53.177Z,24.77
2022-08-05T01:07:23.147Z,24.71
2022-08-05T01:09:59.017Z,24.68
2022-08-05T01:12:29.574Z,24.63
2022-08-05T01:15:05.174Z,24.60
2022-08-05T01:17:40.070Z,24.57
2022-08-05T01:20:25.721Z,24.53
2022-08-05T01:22:59.969Z,24.52
2022-08-05T01:25:53.440Z,24.46
2022-08-05T01:28:47.140Z,24.44
2022-08-05T01:31:32.466Z,24.41
2022-08-05T01:34:13.028Z,24.40
2022-08-05T01:36:42.249Z,24.38
2022-08-05T01:39:45.637Z,24.36
2022-08-05T01:42:05.271Z,24.31
2022-08-05T01:44:37.120Z,24.27
2022-08-05T01:47:05.199Z,24.19
2022-08-05T01:50:00.373Z,24.14
2022-08-05T01:52:22.370Z,24.08
2022-08-05T01:54:53.013Z,24.07
2022-08-05T01:58:11.970Z,24.04
2022-08-05T02:00:13.864Z,24.04
2022-08-05T02:02:46.429Z,24.03
2022-08-05T02:05:23.723Z,24.01
2022-08-05T02:07:59.996Z,23.96
2022-08-05T02:10:28.694Z,23.92
2022-08-05T02:12:58.342Z,23.86
2022-08-05T02:15:33.384Z,23.83
2022-08-05T02:18:32.941Z,23.79
2022-08-05T02:20:54.768Z,23.76
2022-08-05T02:23:26.546Z,23.74
2022-08-05T02:25:54.046Z,23.73
2022-08-05T02:28:29.195Z,23.69
2022-08-05T02:31:02.705Z,23.68
2022-08-05T02:33:38.247Z,23.66
2022-08-05T02:36:05.900Z,23.64
2022-08-05T02:38:38.267Z,23.63
2022-08-05T02:41:14.617Z,23.63
2022-08-05T02:44:02.964Z,23.64
2022-08-05T02:46:30.904Z,23.60
2022-08-05T02:48:57.536Z,23.58
2022-08-05T02:51:28.253Z,23.56
2022-08-05T02:54:10.884Z,23.53
2022-08-05T02:56:57.637Z,23.47
2022-08-05T02:59:27.739Z,23.44
2022-08-05T03:01:58.230Z,23.40
2022-08-05T03:04:25.350Z,23.35
2022-08-05T03:06:55.754Z,23.32
2022-08-05T03:09:36.043Z,23.26
2022-08-05T03:12:05.822Z,23.21
2022-08-05T03:14:32.385Z,23.17
2022-08-05T03:16:59.151Z,23.14
2022-08-05T03:19:33.968Z,23.13
2022-08-05T03:22:03.248Z,23.13
2022-08-05T03:24:31.723Z,23.14
2022-08-05T03:27:00.393Z,23.13
2022-08-05T03:29:45.939Z,23.13
2022-08-05T03:32:14.259Z,23.13
2022-08-05T03:34:51.352Z,23.11
2022-08-05T03:37:18.334Z,23.09
2022-08-05T03:40:00.924Z,23.06
2022-08-05T03:42:41.835Z,23.07
2022-08-05T03:45:22.041Z,23.07
2022-08-05T03:47:50.748Z,23.07
2022-08-05T03:50:20.109Z,23.09
2022-08-05T03:55:52.581Z,23.06
2022-08-05T03:56:05.287Z,23.04
2022-08-05T03:58:32.281Z,23.05
2022-08-05T04:01:02.430Z,22.99
2022-08-05T04:03:35.857Z,22.94
2022-08-05T04:06:08.746Z,22.84
2022-08-05T04:08:36.757Z,22.81
2022-08-05T04:11:04.649Z,22.86
2022-08-05T04:13:50.102Z,22.90
2022-08-05T04:16:24.228Z,22.91
2022-08-05T04:18:54.859Z,22.97
2022-08-05T04:22:08.467Z,22.93
2022-08-05T04:24:18.859Z,22.95
2022-08-05T04:26:46.948Z,23.03
2022-08-05T04:29:16.335Z,23.07
2022-08-05T04:31:43.089Z,23.07
2022-08-05T04:34:18.106Z,23.07
2022-08-05T04:36:50.046Z,23.12
2022-08-05T04:39:18.247Z,23.15
2022-08-05T04:41:48.082Z,23.18
2022-08-05T04:44:29.146Z,23.16
2022-08-05T04:46:56.654Z,23.18
2022-08-05T04:49:24.771Z,23.15
2022-08-05T04:52:07.767Z,23.11
2022-08-05T04:54:37.075Z,23.10
2022-08-05T04:57:03.971Z,23.06
2022-08-05T04:59:38.807Z,23.08
2022-08-05T05:02:37.282Z,23.12
2022-08-05T05:05:02.282Z,23.20
2022-08-05T05:07:36.023Z,23.30
2022-08-05T05:10:06.358Z,23.36
2022-08-05T05:12:34.111Z,23.38
2022-08-05T05:15:10.809Z,23.42
2022-08-05T05:17:55.570Z,23.43
2022-08-05T05:20:28.439Z,23.47
2022-08-05T05:22:59.761Z,23.50
2022-08-05T05:25:40.585Z,23.52
2022-08-05T05:28:10.781Z,23.54
2022-08-05T05:30:44.243Z,23.58
2022-08-05T05:33:23.277Z,23.63
2022-08-05T05:35:51.156Z,23.69
2022-08-05T05:38:27.034Z,23.75
2022-08-05T05:40:55.124Z,23.81
2022-08-05T05:43:54.841Z,23.85
2022-08-05T05:46:17.798Z,23.94
2022-08-05T05:48:46.054Z,24.03
2022-08-05T05:51:19.020Z,24.12
2022-08-05T05:53:58.024Z,24.16
2022-08-05T05:56:33.396Z,24.21
2022-08-05T05:59:07.382Z,24.27
2022-08-05T06:01:37.742Z,24.31
2022-08-05T06:04:07.627Z,24.35
2022-08-05T06:06:37.415Z,24.40
2022-08-05T06:09:09.603Z,24.48
2022-08-05T06:12:02.117Z,24.56
2022-08-05T06:14:30.528Z,24.62
2022-08-05T06:16:57.868Z,24.71
2022-08-05T06:19:26.158Z,24.78
2022-08-05T06:22:04.628Z,24.87
2022-08-05T06:24:35.864Z,24.91
2022-08-05T06:27:04.044Z,24.96
2022-08-05T06:29:49.009Z,25.01
2022-08-05T06:32:26.152Z,25.08
2022-08-05T06:34:57.833Z,25.14
2022-08-05T06:37:55.536Z,25.19
2022-08-05T06:40:13.701Z,25.27
2022-08-05T06:42:43.144Z,25.31
2022-08-05T06:45:20.767Z,25.37
2022-08-05T06:48:44.221Z,25.42
2022-08-05T06:50:34.733Z,25.48
2022-08-05T06:53:19.514Z,25.56
2022-08-05T06:55:50.651Z,25.61
2022-08-05T06:58:20.066Z,25.67
2022-08-05T07:00:59.878Z,25.68
2022-08-05T07:03:33.213Z,25.72
2022-08-05T07:06:06.294Z,25.79
2022-08-05T07:08:47.301Z,25.90
2022-08-05T07:11:15.289Z,25.99
2022-08-05T07:14:03.479Z,26.08
2022-08-05T07:17:59.398Z,26.14
2022-08-05T07:20:16.431Z,26.23
2022-08-05T07:22:29.189Z,26.32
2022-08-05T07:25:24.050Z,26.42
2022-08-05T07:27:57.565Z,26.55
2022-08-05T07:30:34.043Z,26.60
2022-08-05T07:33:01.945Z,26.65
2022-08-05T07:36:01.996Z,26.69
2022-08-05T07:38:34.006Z,26.79
2022-08-05T07:42:09.118Z,26.93
2022-08-05T07:43:50.124Z,27.09
2022-08-05T07:46:24.372Z,27.20
2022-08-05T07:49:02.903Z,27.29
2022-08-05T07:51:41.065Z,27.39
2022-08-05T07:54:31.619Z,27.52
2022-08-05T07:57:22.438Z,27.68
2022-08-05T07:59:48.806Z,27.85
2022-08-05T08:02:17.568Z,27.84
2022-08-05T08:04:48.292Z,27.84
2022-08-05T08:07:22.666Z,27.89
2022-08-05T08:09:52.067Z,27.97
2022-08-05T08:12:36.903Z,28.11
2022-08-05T08:15:09.523Z,28.22
2022-08-05T08:17:40.793Z,28.34
2022-08-05T08:20:42.588Z,28.43
2022-08-05T08:23:03.399Z,28.58
2022-08-05T08:25:59.299Z,28.70
2022-08-05T08:28:36.119Z,28.78
2022-08-05T08:31:08.626Z,28.92
2022-08-05T08:33:37.548Z,29.06
2022-08-05T08:36:38.918Z,29.18
2022-08-05T08:38:57.500Z,29.39
2022-08-05T08:41:50.730Z,29.51
2022-08-05T08:45:16.892Z,29.63
2022-08-05T08:47:04.121Z,29.78
2022-08-05T08:50:22.277Z,29.90
2022-08-05T08:52:43.490Z,30.02
2022-08-05T08:55:32.089Z,30.14
2022-08-05T08:58:12.960Z,30.22
2022-08-05T09:00:40.369Z,30.34
2022-08-05T09:03:11.712Z,30.43
2022-08-05T09:06:09.005Z,30.52
2022-08-05T09:08:31.530Z,30.52
2022-08-05T09:10:58.410Z,30.61
2022-08-05T09:13:25.213Z,30.70
2022-08-05T09:15:58.817Z,30.85
2022-08-05T09:18:25.982Z,30.89
2022-08-05T09:20:52.640Z,31.01
2022-08-05T09:23:22.133Z,31.09
2022-08-05T09:26:01.958Z,31.18
2022-08-05T09:28:34.525Z,31.19
2022-08-05T09:32:38.692Z,31.23
2022-08-05T09:34:01.385Z,31.30
2022-08-05T09:36:56.401Z,31.41
2022-08-05T09:39:45.106Z,31.52
2022-08-05T09:42:23.696Z,31.62
2022-08-05T09:44:56.401Z,31.67
2022-08-05T09:47:36.361Z,31.75
2022-08-05T09:50:18.108Z,31.86
2022-08-05T09:53:01.436Z,31.94
2022-08-05T09:55:56.619Z,32.01
2022-08-05T09:58:15.395Z,32.13
2022-08-05T10:01:01.663Z,32.25
2022-08-05T10:03:58.957Z,32.23
2022-08-05T10:06:27.631Z,32.37
2022-08-05T10:08:57.623Z,32.39
2022-08-05T10:11:24.235Z,32.40
2022-08-05T10:13:58.450Z,32.51
2022-08-05T10:16:34.089Z,32.71
2022-08-05T10:19:08.523Z,32.93
2022-08-05T10:21:40.199Z,33.14
2022-08-05T10:24:13.451Z,33.16
2022-08-05T10:26:51.996Z,33.03
2022-08-05T10:29:24.085Z,33.17
2022-08-05T10:32:55.079Z,33.38
2022-08-05T10:35:00.992Z,33.65
2022-08-05T10:37:37.530Z,33.84
2022-08-05T10:40:34.472Z,33.84
2022-08-05T10:43:16.275Z,34.00
2022-08-05T10:45:55.051Z,34.11
2022-08-05T10:48:52.600Z,34.21
2022-08-05T10:51:28.557Z,34.23
2022-08-05T10:54:01.686Z,34.36
2022-08-05T10:56:38.131Z,34.39
2022-08-05T11:00:01.179Z,34.56
2022-08-05T11:02:14.119Z,34.85
2022-08-05T11:04:57.866Z,35.00
2022-08-05T11:07:32.755Z,35.15
2022-08-05T11:10:27.798Z,35.36
2022-08-05T11:12:56.512Z,35.64
2022-08-05T11:16:00.118Z,35.83
2022-08-05T11:18:32.304Z,36.04
2022-08-05T11:20:59.415Z,35.95
2022-08-05T11:24:04.074Z,36.00
2022-08-05T11:26:33.750Z,36.19
2022-08-05T11:29:11.383Z,36.46
2022-08-05T11:31:53.931Z,36.41
2022-08-05T11:34:36.385Z,36.72
2022-08-05T11:37:03.289Z,37.00
2022-08-05T11:40:00.593Z,37.10
2022-08-05T11:42:29.989Z,37.12
2022-08-05T11:45:05.597Z,36.51
2022-08-05T11:47:48.539Z,36.39
2022-08-05T11:50:19.073Z,36.79
2022-08-05T11:52:49.610Z,37.19
2022-08-05T11:55:17.899Z,37.42
2022-08-05T11:58:09.175Z,37.60
2022-08-05T12:00:41.666Z,37.41
2022-08-05T12:03:29.630Z,37.79
2022-08-05T12:06:01.579Z,38.24
2022-08-05T12:08:28.649Z,38.19
2022-08-05T12:11:05.454Z,37.89
2022-08-05T12:13:48.422Z,37.90
2022-08-05T12:16:18.695Z,38.39
2022-08-05T12:18:52.952Z,38.86
2022-08-05T12:21:21.643Z,39.28
2022-08-05T12:23:54.017Z,39.17
2022-08-05T12:26:20.784Z,39.13
2022-08-05T12:28:49.741Z,38.84
2022-08-05T12:31:33.057Z,38.60
2022-08-05T12:34:06.708Z,39.01
2022-08-05T12:36:37.082Z,39.51
2022-08-05T12:39:07.048Z,39.83
2022-08-05T12:41:35.537Z,40.16
2022-08-05T12:44:11.687Z,40.49
2022-08-05T12:46:45.696Z,41.23
2022-08-05T12:49:19.037Z,42.17
2022-08-05T12:52:14.160Z,42.76
2022-08-05T12:54:43.509Z,43.62
2022-08-05T12:57:16.145Z,44.12
2022-08-05T13:01:57.581Z,43.77
2022-08-05T13:02:40.818Z,43.39
2022-08-05T13:05:07.814Z,43.48
2022-08-05T13:07:59.472Z,44.34
2022-08-05T13:10:24.161Z,45.00
2022-08-05T13:12:57.872Z,45.21
2022-08-05T13:15:41.044Z,43.49
2022-08-05T13:18:20.774Z,42.64
2022-08-05T13:20:48.944Z,43.15
2022-08-05T13:23:18.065Z,43.76
2022-08-05T13:25:51.754Z,44.15
2022-08-05T13:28:28.498Z,44.14
2022-08-05T13:30:58.143Z,44.75
2022-08-05T13:34:24.191Z,45.29
2022-08-05T13:36:17.326Z,45.20
2022-08-05T13:38:44.407Z,44.96
2022-08-05T13:41:18.754Z,45.58
2022-08-05T13:43:54.467Z,46.40
2022-08-05T13:46:37.715Z,47.28
2022-08-05T13:49:10.358Z,47.71
2022-08-05T13:51:41.017Z,48.35
2022-08-05T13:54:15.429Z,49.10
2022-08-05T13:56:51.487Z,49.93
2022-08-05T13:59:24.408Z,49.90
2022-08-05T14:01:57.737Z,49.79
2022-08-05T14:05:00.724Z,49.14
2022-08-05T14:08:01.175Z,47.89
2022-08-05T14:10:18.988Z,48.24
2022-08-05T14:12:55.055Z,48.12
2022-08-05T14:16:08.734Z,47.17
2022-08-05T14:18:15.135Z,46.79
2022-08-05T14:20:46.963Z,46.91
2022-08-05T14:23:19.117Z,47.06
2022-08-05T14:25:58.921Z,47.89
2022-08-05T14:28:29.558Z,48.10
2022-08-05T14:31:00.508Z,48.49
2022-08-05T14:33:56.397Z,48.29
2022-08-05T14:36:14.617Z,48.88
2022-08-05T14:38:44.108Z,49.60
2022-08-05T14:41:14.961Z,49.89
2022-08-05T14:43:53.896Z,50.00
2022-08-05T14:46:30.585Z,50.37
2022-08-05T14:48:58.998Z,50.38
2022-08-05T14:51:30.915Z,50.52
2022-08-05T14:54:28.599Z,50.74
2022-08-05T14:56:47.207Z,50.78
2022-08-05T14:59:17.236Z,51.04
2022-08-05T15:01:47.171Z,51.66
2022-08-05T15:04:20.575Z,52.05
2022-08-05T15:06:49.760Z,52.20
2022-08-05T15:09:51.115Z,51.74
2022-08-05T15:12:16.745Z,51.05
2022-08-05T15:14:50.043Z,51.40
2022-08-05T15:17:47.710Z,51.01
2022-08-05T15:20:15.542Z,50.33
2022-08-05T15:22:45.950Z,49.91
2022-08-05T15:25:23.660Z,49.26
2022-08-05T15:28:14.317Z,49.69
2022-08-05T15:30:45.703Z,49.24
2022-08-05T15:33:13.579Z,48.88
2022-08-05T15:36:03.646Z,47.57
2022-08-05T15:38:40.770Z,46.29
2022-08-05T15:41:22.192Z,46.33
2022-08-05T15:43:50.446Z,46.23
2022-08-05T15:46:17.147Z,46.37
2022-08-05T15:48:52.540Z,45.91
2022-08-05T15:52:10.040Z,45.24
2022-08-05T15:54:19.938Z,44.59
2022-08-05T15:57:03.536Z,43.95
2022-08-05T15:59:34.569Z,43.49
2022-08-05T16:02:03.521Z,42.70
2022-08-05T16:04:38.673Z,41.99
2022-08-05T16:07:05.909Z,41.64
2022-08-05T16:09:37.230Z,41.17
2022-08-05T16:12:08.523Z,40.80
2022-08-05T16:14:38.635Z,40.56
2022-08-05T16:17:05.412Z,40.37
2022-08-05T16:20:05.265Z,40.17
2022-08-05T16:22:24.172Z,40.00
2022-08-05T16:24:56.859Z,39.60
2022-08-05T16:27:46.733Z,39.41
2022-08-05T16:30:25.477Z,39.29
2022-08-05T16:32:55.507Z,39.07
2022-08-05T16:35:27.839Z,38.67
2022-08-05T16:38:02.383Z,38.46
2022-08-05T16:40:47.723Z,38.40
2022-08-05T16:43:18.998Z,38.25
2022-08-05T16:46:07.662Z,38.06
2022-08-05T16:48:36.420Z,37.82
2022-08-05T16:51:10.178Z,37.55
2022-08-05T16:54:05.366Z,37.41
2022-08-05T16:56:33.825Z,37.21
2022-08-05T16:59:08.185Z,37.10
2022-08-05T17:01:53.884Z,37.04
2022-08-05T17:04:23.841Z,36.96
2022-08-05T17:06:54.243Z,36.78
2022-08-05T17:09:21.138Z,36.57
2022-08-05T17:11:59.647Z,36.39
2022-08-05T17:14:37.102Z,36.22
2022-08-05T17:17:04.915Z,35.99
2022-08-05T17:19:31.637Z,35.83
2022-08-05T17:22:01.792Z,35.63
2022-08-05T17:24:38.538Z,35.49
2022-08-05T17:27:07.086Z,35.40
2022-08-05T17:29:40.955Z,35.17
2022-08-05T17:32:11.451Z,35.08
2022-08-05T17:34:39.191Z,34.92
2022-08-05T17:37:32.108Z,34.84
2022-08-05T17:39:55.380Z,34.74
2022-08-05T17:42:31.979Z,34.64
2022-08-05T17:44:59.602Z,34.48
2022-08-05T17:47:26.544Z,34.33
2022-08-05T17:50:03.706Z,34.24
2022-08-05T17:52:34.385Z,34.16
2022-08-05T17:55:01.209Z,34.03
2022-08-05T17:57:32.596Z,33.91
2022-08-05T18:00:05.136Z,33.85
2022-08-05T18:02:35.302Z,33.78
2022-08-05T18:05:05.957Z,33.71
2022-08-05T18:07:41.485Z,33.64
2022-08-05T18:10:10.403Z,33.60
2022-08-05T18:12:37.681Z,33.52
2022-08-05T18:15:04.879Z,33.48
2022-08-05T18:17:59.229Z,33.42
2022-08-05T18:20:29.238Z,33.34
2022-08-05T18:23:11.919Z,33.30
2022-08-05T18:25:45.091Z,33.24
2022-08-05T18:28:16.247Z,33.19
2022-08-05T18:30:51.233Z,33.13
2022-08-05T18:33:23.146Z,33.05
2022-08-05T18:36:03.912Z,32.97
2022-08-05T18:38:36.747Z,32.78
2022-08-05T18:41:58.476Z,32.56
2022-08-05T18:43:57.672Z,32.35
2022-08-05T18:46:32.650Z,32.29
2022-08-05T18:49:19.824Z,32.22
2022-08-05T18:52:08.901Z,32.15
2022-08-05T18:54:41.148Z,32.09
2022-08-05T18:57:15.385Z,32.03
2022-08-05T19:00:02.204Z,32.02
2022-08-05T19:02:29.633Z,31.98
2022-08-05T19:05:02.829Z,31.94
2022-08-05T19:07:48.096Z,31.86
2022-08-05T19:10:17.410Z,31.78
2022-08-05T19:12:48.358Z,31.72
2022-08-05T19:15:57.146Z,31.68
2022-08-05T19:18:09.520Z,31.62
2022-08-05T19:20:41.492Z,31.54
2022-08-05T19:24:03.622Z,31.44
2022-08-05T19:26:01.930Z,31.35
2022-08-05T19:28:33.846Z,31.29
2022-08-05T19:31:06.058Z,31.22
2022-08-05T19:33:36.232Z,31.14
2022-08-05T19:36:07.013Z,31.05
2022-08-05T19:38:37.065Z,30.98
2022-08-05T19:41:09.040Z,30.88
2022-08-05T19:44:05.403Z,30.73
2022-08-05T19:46:30.185Z,30.62
2022-08-05T19:48:57.446Z,30.53
2022-08-05T19:52:04.732Z,30.44
2022-08-05T19:54:26.626Z,30.34
2022-08-05T19:56:58.596Z,30.22
2022-08-05T19:59:54.966Z,30.15
2022-08-05T20:02:12.714Z,30.04
2022-08-05T20:04:42.799Z,29.93
2022-08-05T20:07:13.396Z,29.82
2022-08-05T20:09:53.579Z,29.70
2022-08-05T20:12:22.238Z,29.64
2022-08-05T20:14:52.339Z,29.60
2022-08-05T20:17:24.241Z,29.51
2022-08-05T20:19:57.008Z,29.37
2022-08-05T20:22:27.214Z,29.25
2022-08-05T20:24:54.859Z,29.22
2022-08-05T20:27:26.939Z,29.22
2022-08-05T20:29:58.896Z,29.20
2022-08-05T20:32:26.696Z,29.14
2022-08-05T20:34:53.668Z,29.09
2022-08-05T20:38:04.919Z,29.05
2022-08-05T20:40:07.689Z,28.97
2022-08-05T20:42:37.512Z,28.92
2022-08-05T20:45:06.993Z,28.90
2022-08-05T20:47:34.779Z,28.88
2022-08-05T20:50:07.432Z,28.84
2022-08-05T20:52:41.475Z,28.77
2022-08-05T20:55:56.364Z,28.67
2022-08-05T20:57:55.669Z,28.59
2022-08-05T21:00:44.210Z,28.41
2022-08-05T21:03:10.534Z,28.29
2022-08-05T21:05:48.083Z,28.26
2022-08-05T21:08:26.841Z,28.21
2022-08-05T21:11:09.921Z,28.20
2022-08-05T21:13:47.854Z,28.12
2022-08-05T21:16:29.641Z,28.16
2022-08-05T21:19:00.148Z,28.12
2022-08-05T21:21:39.145Z,28.18
2022-08-05T21:24:09.918Z,28.20
2022-08-05T21:26:41.352Z,28.25
2022-08-05T21:29:10.064Z,28.26
2022-08-05T21:31:41.215Z,28.25
2022-08-05T21:34:10.391Z,28.25
2022-08-05T21:36:37.747Z,28.22
2022-08-05T21:39:04.405Z,28.21
2022-08-05T21:41:34.286Z,28.16
2022-08-05T21:44:04.323Z,28.10
2022-08-05T21:46:34.950Z,28.06
2022-08-05T21:49:02.364Z,27.99
2022-08-05T21:52:15.900Z,27.95
2022-08-05T21:54:27.830Z,27.91
2022-08-05T21:57:04.883Z,27.87
2022-08-05T22:00:02.909Z,27.83
2022-08-05T22:02:39.267Z,27.78
2022-08-05T22:05:13.164Z,27.76
2022-08-05T22:07:58.812Z,27.68
2022-08-05T22:10:29.354Z,27.58
2022-08-05T22:14:06.407Z,27.54
2022-08-05T22:16:02.756Z,27.50
2022-08-05T22:18:34.461Z,27.44
2022-08-05T22:21:03.959Z,27.39
2022-08-05T22:24:02.593Z,27.34
2022-08-05T22:26:54.340Z,27.27
2022-08-05T22:29:26.589Z,27.21
2022-08-05T22:32:02.950Z,27.18
2022-08-05T22:34:30.234Z,27.15
2022-08-05T22:36:59.445Z,27.09
2022-08-05T22:39:32.997Z,27.07
2022-08-05T22:42:09.771Z,26.99
2022-08-05T22:44:38.966Z,26.94
2022-08-05T22:47:05.701Z,26.91
2022-08-05T22:50:20.595Z,26.84
2022-08-05T22:52:22.875Z,26.77
2022-08-05T22:55:00.995Z,26.69
2022-08-05T22:57:34.155Z,26.65
2022-08-05T23:00:07.809Z,26.61
2022-08-05T23:02:39.949Z,26.54
2022-08-05T23:05:14.218Z,26.50
2022-08-05T23:07:48.396Z,26.46
2022-08-05T23:10:19.527Z,26.44
2022-08-05T23:12:54.479Z,26.41
2022-08-05T23:15:29.057Z,26.38
2022-08-05T23:18:00.531Z,26.34
2022-08-05T23:20:28.687Z,26.23
2022-08-05T23:22:55.977Z,26.15
2022-08-05T23:25:52.619Z,26.10
2022-08-05T23:28:17.192Z,26.09
2022-08-05T23:30:53.635Z,26.05
2022-08-05T23:33:25.771Z,26.02
2022-08-05T23:35:55.074Z,26.01
2022-08-05T23:38:23.039Z,25.99
2022-08-05T23:40:52.759Z,25.95
2022-08-05T23:43:24.856Z,25.91
2022-08-05T23:46:03.709Z,25.88
2022-08-05T23:48:30.262Z,25.86
2022-08-05T23:50:56.994Z,25.83
2022-08-05T23:53:28.501Z,25.80
2022-08-05T23:56:12.330Z,25.76
2022-08-05T23:58:38.946Z,25.71
